sensor_id;sensor_type;location;lat;lon;timestamp;P1;durP1;ratioP1;P2;durP2;ratioP2
73487;SDS011;61721;42.206;25.320;2023-03-04T00:01:55;21.33;;;11.43;;
73487;SDS011;61721;42.206;25.320;2023-03-04T00:04:22;19.50;;;11.88;;
73487;SDS011;61721;42.206;25.320;2023-03-04T00:06:51;21.27;;;11.30;;
73487;SDS011;61721;42.206;25.320;2023-03-04T00:09:18;21.00;;;11.90;;
73487;SDS011;61721;42.206;25.320;2023-03-04T00:11:47;22.17;;;12.50;;
73487;SDS011;61721;42.206;25.320;2023-03-04T00:14:14;21.27;;;11.35;;
73487;SDS011;61721;42.206;25.320;2023-03-04T00:16:42;21.13;;;11.30;;
73487;SDS011;61721;42.206;25.320;2023-03-04T00:19:09;18.10;;;10.38;;
73487;SDS011;61721;42.206;25.320;2023-03-04T00:21:36;20.38;;;12.85;;
73487;SDS011;61721;42.206;25.320;2023-03-04T00:24:05;18.50;;;9.98;;
73487;SDS011;61721;42.206;25.320;2023-03-04T00:26:33;17.75;;;10.43;;
73487;SDS011;61721;42.206;25.320;2023-03-04T00:29:00;21.73;;;11.52;;
73487;SDS011;61721;42.206;25.320;2023-03-04T00:31:27;18.88;;;10.50;;
73487;SDS011;61721;42.206;25.320;2023-03-04T00:33:54;16.83;;;10.57;;
73487;SDS011;61721;42.206;25.320;2023-03-04T00:36:21;16.90;;;9.38;;
73487;SDS011;61721;42.206;25.320;2023-03-04T00:38:49;17.50;;;8.93;;
73487;SDS011;61721;42.206;25.320;2023-03-04T00:41:19;15.93;;;9.20;;
73487;SDS011;61721;42.206;25.320;2023-03-04T00:43:46;16.42;;;8.68;;
73487;SDS011;61721;42.206;25.320;2023-03-04T00:46:13;15.07;;;8.60;;
73487;SDS011;61721;42.206;25.320;2023-03-04T00:48:40;15.27;;;7.95;;
73487;SDS011;61721;42.206;25.320;2023-03-04T00:51:07;14.57;;;7.97;;
73487;SDS011;61721;42.206;25.320;2023-03-04T00:53:34;16.20;;;8.23;;
73487;SDS011;61721;42.206;25.320;2023-03-04T00:56:02;13.52;;;7.80;;
73487;SDS011;61721;42.206;25.320;2023-03-04T00:58:31;14.70;;;8.23;;
73487;SDS011;61721;42.206;25.320;2023-03-04T01:00:58;18.55;;;8.35;;
73487;SDS011;61721;42.206;25.320;2023-03-04T01:03:25;18.05;;;9.30;;
73487;SDS011;61721;42.206;25.320;2023-03-04T01:05:55;16.92;;;9.65;;
73487;SDS011;61721;42.206;25.320;2023-03-04T01:08:22;15.75;;;8.90;;
73487;SDS011;61721;42.206;25.320;2023-03-04T01:10:50;16.13;;;8.82;;
73487;SDS011;61721;42.206;25.320;2023-03-04T01:13:17;15.63;;;8.75;;
73487;SDS011;61721;42.206;25.320;2023-03-04T01:15:46;18.10;;;11.00;;
73487;SDS011;61721;42.206;25.320;2023-03-04T01:18:13;20.33;;;11.00;;
73487;SDS011;61721;42.206;25.320;2023-03-04T01:20:40;18.83;;;9.77;;
73487;SDS011;61721;42.206;25.320;2023-03-04T01:23:07;17.50;;;9.82;;
73487;SDS011;61721;42.206;25.320;2023-03-04T01:25:34;15.60;;;9.80;;
73487;SDS011;61721;42.206;25.320;2023-03-04T01:28:02;19.58;;;10.68;;
73487;SDS011;61721;42.206;25.320;2023-03-04T01:30:29;18.38;;;11.07;;
73487;SDS011;61721;42.206;25.320;2023-03-04T01:32:58;18.42;;;10.88;;
73487;SDS011;61721;42.206;25.320;2023-03-04T01:35:25;20.33;;;11.90;;
73487;SDS011;61721;42.206;25.320;2023-03-04T01:37:52;21.08;;;12.90;;
73487;SDS011;61721;42.206;25.320;2023-03-04T01:40:20;19.48;;;10.73;;
73487;SDS011;61721;42.206;25.320;2023-03-04T01:42:47;22.40;;;11.30;;
73487;SDS011;61721;42.206;25.320;2023-03-04T01:45:15;22.38;;;11.18;;
73487;SDS011;61721;42.206;25.320;2023-03-04T01:47:44;20.17;;;11.13;;
73487;SDS011;61721;42.206;25.320;2023-03-04T01:50:19;20.25;;;10.45;;
73487;SDS011;61721;42.206;25.320;2023-03-04T01:52:49;23.00;;;12.48;;
73487;SDS011;61721;42.206;25.320;2023-03-04T01:55:17;27.92;;;13.35;;
73487;SDS011;61721;42.206;25.320;2023-03-04T01:57:45;27.15;;;14.63;;
73487;SDS011;61721;42.206;25.320;2023-03-04T02:03:03;23.40;;;13.40;;
73487;SDS011;61721;42.206;25.320;2023-03-04T02:05:34;21.98;;;12.30;;
73487;SDS011;61721;42.206;25.320;2023-03-04T02:08:04;23.40;;;13.05;;
73487;SDS011;61721;42.206;25.320;2023-03-04T02:10:32;23.52;;;11.70;;
73487;SDS011;61721;42.206;25.320;2023-03-04T02:13:00;20.85;;;12.07;;
73487;SDS011;61721;42.206;25.320;2023-03-04T02:15:29;20.05;;;11.63;;
73487;SDS011;61721;42.206;25.320;2023-03-04T02:17:56;20.30;;;11.25;;
73487;SDS011;61721;42.206;25.320;2023-03-04T02:23:13;23.27;;;11.23;;
73487;SDS011;61721;42.206;25.320;2023-03-04T02:28:17;14.80;;;9.13;;
73487;SDS011;61721;42.206;25.320;2023-03-04T02:30:45;18.55;;;9.02;;
73487;SDS011;61721;42.206;25.320;2023-03-04T02:33:13;18.83;;;9.77;;
73487;SDS011;61721;42.206;25.320;2023-03-04T02:35:42;18.42;;;10.70;;
73487;SDS011;61721;42.206;25.320;2023-03-04T02:38:10;20.17;;;11.43;;
73487;SDS011;61721;42.206;25.320;2023-03-04T02:40:38;17.02;;;10.18;;
73487;SDS011;61721;42.206;25.320;2023-03-04T02:43:10;17.08;;;10.05;;
73487;SDS011;61721;42.206;25.320;2023-03-04T02:45:41;17.30;;;9.98;;
73487;SDS011;61721;42.206;25.320;2023-03-04T02:48:11;17.25;;;9.68;;
73487;SDS011;61721;42.206;25.320;2023-03-04T02:50:40;18.38;;;10.65;;
73487;SDS011;61721;42.206;25.320;2023-03-04T02:53:09;20.77;;;10.88;;
73487;SDS011;61721;42.206;25.320;2023-03-04T02:55:36;20.17;;;10.40;;
73487;SDS011;61721;42.206;25.320;2023-03-04T02:58:04;18.05;;;10.63;;
73487;SDS011;61721;42.206;25.320;2023-03-04T03:00:31;15.18;;;9.45;;
73487;SDS011;61721;42.206;25.320;2023-03-04T03:03:01;15.18;;;9.98;;
73487;SDS011;61721;42.206;25.320;2023-03-04T03:05:30;15.45;;;10.07;;
73487;SDS011;61721;42.206;25.320;2023-03-04T03:07:58;15.40;;;9.43;;
73487;SDS011;61721;42.206;25.320;2023-03-04T03:10:26;17.67;;;9.27;;
73487;SDS011;61721;42.206;25.320;2023-03-04T03:12:53;19.17;;;10.73;;
73487;SDS011;61721;42.206;25.320;2023-03-04T03:15:21;18.90;;;11.45;;
73487;SDS011;61721;42.206;25.320;2023-03-04T03:17:50;18.70;;;11.60;;
73487;SDS011;61721;42.206;25.320;2023-03-04T03:20:18;20.17;;;11.27;;
73487;SDS011;61721;42.206;25.320;2023-03-04T03:22:46;21.70;;;12.43;;
73487;SDS011;61721;42.206;25.320;2023-03-04T03:25:13;23.08;;;11.43;;
73487;SDS011;61721;42.206;25.320;2023-03-04T03:27:41;18.40;;;10.88;;
73487;SDS011;61721;42.206;25.320;2023-03-04T03:30:10;19.73;;;10.75;;
73487;SDS011;61721;42.206;25.320;2023-03-04T03:32:38;20.33;;;11.02;;
73487;SDS011;61721;42.206;25.320;2023-03-04T03:35:06;18.30;;;9.75;;
73487;SDS011;61721;42.206;25.320;2023-03-04T03:37:35;20.70;;;10.43;;
73487;SDS011;61721;42.206;25.320;2023-03-04T03:40:02;19.63;;;10.88;;
73487;SDS011;61721;42.206;25.320;2023-03-04T03:42:30;18.67;;;10.40;;
73487;SDS011;61721;42.206;25.320;2023-03-04T03:44:57;21.02;;;12.55;;
73487;SDS011;61721;42.206;25.320;2023-03-04T03:47:26;19.42;;;10.88;;
73487;SDS011;61721;42.206;25.320;2023-03-04T03:49:53;20.02;;;11.00;;
73487;SDS011;61721;42.206;25.320;2023-03-04T03:52:20;18.73;;;11.40;;
73487;SDS011;61721;42.206;25.320;2023-03-04T03:54:49;21.75;;;12.32;;
73487;SDS011;61721;42.206;25.320;2023-03-04T03:57:16;24.33;;;13.27;;
73487;SDS011;61721;42.206;25.320;2023-03-04T03:59:43;30.02;;;14.43;;
73487;SDS011;61721;42.206;25.320;2023-03-04T04:02:10;23.75;;;12.50;;
73487;SDS011;61721;42.206;25.320;2023-03-04T04:04:37;25.27;;;13.23;;
73487;SDS011;61721;42.206;25.320;2023-03-04T04:07:05;23.20;;;12.65;;
73487;SDS011;61721;42.206;25.320;2023-03-04T04:09:52;26.83;;;13.73;;
73487;SDS011;61721;42.206;25.320;2023-03-04T04:12:19;27.98;;;14.18;;
73487;SDS011;61721;42.206;25.320;2023-03-04T04:14:46;28.92;;;15.25;;
73487;SDS011;61721;42.206;25.320;2023-03-04T04:17:13;29.50;;;14.38;;
73487;SDS011;61721;42.206;25.320;2023-03-04T04:19:41;27.58;;;14.77;;
73487;SDS011;61721;42.206;25.320;2023-03-04T04:22:09;34.25;;;17.98;;
73487;SDS011;61721;42.206;25.320;2023-03-04T04:24:40;34.45;;;18.75;;
73487;SDS011;61721;42.206;25.320;2023-03-04T04:27:10;34.28;;;18.25;;
73487;SDS011;61721;42.206;25.320;2023-03-04T04:29:38;37.45;;;16.98;;
73487;SDS011;61721;42.206;25.320;2023-03-04T04:32:05;29.83;;;15.93;;
73487;SDS011;61721;42.206;25.320;2023-03-04T04:34:33;29.55;;;15.77;;
73487;SDS011;61721;42.206;25.320;2023-03-04T04:37:00;32.28;;;15.65;;
73487;SDS011;61721;42.206;25.320;2023-03-04T04:39:28;32.10;;;16.50;;
73487;SDS011;61721;42.206;25.320;2023-03-04T04:41:55;27.05;;;14.65;;
73487;SDS011;61721;42.206;25.320;2023-03-04T04:44:24;23.45;;;13.30;;
73487;SDS011;61721;42.206;25.320;2023-03-04T04:46:51;25.75;;;14.63;;
73487;SDS011;61721;42.206;25.320;2023-03-04T04:49:18;26.30;;;13.65;;
73487;SDS011;61721;42.206;25.320;2023-03-04T04:51:45;23.92;;;14.18;;
73487;SDS011;61721;42.206;25.320;2023-03-04T04:54:14;27.52;;;14.63;;
73487;SDS011;61721;42.206;25.320;2023-03-04T04:56:41;31.58;;;15.55;;
73487;SDS011;61721;42.206;25.320;2023-03-04T04:59:09;25.70;;;14.40;;
73487;SDS011;61721;42.206;25.320;2023-03-04T05:01:37;32.13;;;16.77;;
73487;SDS011;61721;42.206;25.320;2023-03-04T05:04:05;30.77;;;15.85;;
73487;SDS011;61721;42.206;25.320;2023-03-04T05:06:33;31.77;;;16.80;;
73487;SDS011;61721;42.206;25.320;2023-03-04T05:09:00;27.42;;;15.02;;
73487;SDS011;61721;42.206;25.320;2023-03-04T05:11:28;31.17;;;18.02;;
73487;SDS011;61721;42.206;25.320;2023-03-04T05:13:56;26.00;;;14.60;;
73487;SDS011;61721;42.206;25.320;2023-03-04T05:16:23;31.13;;;16.17;;
73487;SDS011;61721;42.206;25.320;2023-03-04T05:18:51;27.80;;;15.10;;
73487;SDS011;61721;42.206;25.320;2023-03-04T05:21:25;27.20;;;14.38;;
73487;SDS011;61721;42.206;25.320;2023-03-04T05:23:52;25.48;;;14.38;;
73487;SDS011;61721;42.206;25.320;2023-03-04T05:26:19;24.02;;;14.43;;
73487;SDS011;61721;42.206;25.320;2023-03-04T05:28:46;26.67;;;14.05;;
73487;SDS011;61721;42.206;25.320;2023-03-04T05:31:15;34.10;;;17.13;;
73487;SDS011;61721;42.206;25.320;2023-03-04T05:33:42;30.73;;;15.90;;
73487;SDS011;61721;42.206;25.320;2023-03-04T05:36:12;39.05;;;19.00;;
73487;SDS011;61721;42.206;25.320;2023-03-04T05:38:39;35.53;;;17.75;;
73487;SDS011;61721;42.206;25.320;2023-03-04T05:41:06;36.28;;;18.00;;
73487;SDS011;61721;42.206;25.320;2023-03-04T05:43:34;33.33;;;18.17;;
73487;SDS011;61721;42.206;25.320;2023-03-04T05:46:06;33.95;;;18.55;;
73487;SDS011;61721;42.206;25.320;2023-03-04T05:48:34;36.83;;;19.40;;
73487;SDS011;61721;42.206;25.320;2023-03-04T05:51:01;39.17;;;21.35;;
73487;SDS011;61721;42.206;25.320;2023-03-04T05:53:30;36.08;;;19.48;;
73487;SDS011;61721;42.206;25.320;2023-03-04T05:55:57;29.20;;;14.88;;
73487;SDS011;61721;42.206;25.320;2023-03-04T05:58:24;23.17;;;13.00;;
73487;SDS011;61721;42.206;25.320;2023-03-04T06:00:53;29.65;;;16.33;;
73487;SDS011;61721;42.206;25.320;2023-03-04T06:03:21;27.35;;;14.75;;
73487;SDS011;61721;42.206;25.320;2023-03-04T06:05:48;27.02;;;15.82;;
73487;SDS011;61721;42.206;25.320;2023-03-04T06:08:15;32.60;;;17.55;;
73487;SDS011;61721;42.206;25.320;2023-03-04T06:10:44;31.67;;;18.52;;
73487;SDS011;61721;42.206;25.320;2023-03-04T06:13:11;45.38;;;20.98;;
73487;SDS011;61721;42.206;25.320;2023-03-04T06:15:39;88.93;;;35.85;;
73487;SDS011;61721;42.206;25.320;2023-03-04T06:18:06;119.00;;;46.63;;
73487;SDS011;61721;42.206;25.320;2023-03-04T06:20:34;67.15;;;29.77;;
73487;SDS011;61721;42.206;25.320;2023-03-04T06:23:01;93.55;;;38.60;;
73487;SDS011;61721;42.206;25.320;2023-03-04T06:25:29;65.22;;;29.83;;
73487;SDS011;61721;42.206;25.320;2023-03-04T06:30:35;37.03;;;18.73;;
73487;SDS011;61721;42.206;25.320;2023-03-04T06:33:03;48.78;;;27.50;;
73487;SDS011;61721;42.206;25.320;2023-03-04T06:35:31;49.38;;;26.75;;
73487;SDS011;61721;42.206;25.320;2023-03-04T06:37:59;49.47;;;26.58;;
73487;SDS011;61721;42.206;25.320;2023-03-04T06:40:26;62.42;;;31.80;;
73487;SDS011;61721;42.206;25.320;2023-03-04T06:42:54;49.42;;;28.48;;
73487;SDS011;61721;42.206;25.320;2023-03-04T06:45:24;42.53;;;25.77;;
73487;SDS011;61721;42.206;25.320;2023-03-04T06:47:52;47.70;;;26.50;;
73487;SDS011;61721;42.206;25.320;2023-03-04T06:50:25;49.70;;;26.60;;
73487;SDS011;61721;42.206;25.320;2023-03-04T06:52:54;46.85;;;24.33;;
73487;SDS011;61721;42.206;25.320;2023-03-04T06:55:22;33.33;;;18.33;;
73487;SDS011;61721;42.206;25.320;2023-03-04T06:57:49;28.88;;;16.10;;
73487;SDS011;61721;42.206;25.320;2023-03-04T07:00:18;31.25;;;15.43;;
73487;SDS011;61721;42.206;25.320;2023-03-04T07:02:50;32.30;;;17.50;;
73487;SDS011;61721;42.206;25.320;2023-03-04T07:05:17;28.10;;;16.92;;
73487;SDS011;61721;42.206;25.320;2023-03-04T07:07:44;36.53;;;18.75;;
73487;SDS011;61721;42.206;25.320;2023-03-04T07:10:12;27.13;;;16.05;;
73487;SDS011;61721;42.206;25.320;2023-03-04T07:12:39;41.42;;;20.33;;
73487;SDS011;61721;42.206;25.320;2023-03-04T07:15:07;63.83;;;27.50;;
73487;SDS011;61721;42.206;25.320;2023-03-04T07:17:35;39.22;;;20.30;;
73487;SDS011;61721;42.206;25.320;2023-03-04T07:20:04;44.92;;;22.88;;
73487;SDS011;61721;42.206;25.320;2023-03-04T07:22:32;28.88;;;17.75;;
73487;SDS011;61721;42.206;25.320;2023-03-04T07:25:00;26.80;;;16.33;;
73487;SDS011;61721;42.206;25.320;2023-03-04T07:27:27;24.70;;;14.35;;
73487;SDS011;61721;42.206;25.320;2023-03-04T07:29:54;25.45;;;15.23;;
73487;SDS011;61721;42.206;25.320;2023-03-04T07:32:21;25.23;;;14.95;;
73487;SDS011;61721;42.206;25.320;2023-03-04T07:34:48;22.75;;;13.50;;
73487;SDS011;61721;42.206;25.320;2023-03-04T07:37:19;23.95;;;12.88;;
73487;SDS011;61721;42.206;25.320;2023-03-04T07:39:46;20.75;;;11.52;;
73487;SDS011;61721;42.206;25.320;2023-03-04T07:42:13;21.73;;;12.02;;
73487;SDS011;61721;42.206;25.320;2023-03-04T07:44:41;22.73;;;13.15;;
73487;SDS011;61721;42.206;25.320;2023-03-04T07:47:08;19.90;;;11.25;;
73487;SDS011;61721;42.206;25.320;2023-03-04T07:49:35;21.77;;;12.80;;
73487;SDS011;61721;42.206;25.320;2023-03-04T07:52:04;21.02;;;11.50;;
73487;SDS011;61721;42.206;25.320;2023-03-04T07:54:33;18.50;;;10.52;;
73487;SDS011;61721;42.206;25.320;2023-03-04T07:57:00;19.05;;;10.68;;
73487;SDS011;61721;42.206;25.320;2023-03-04T07:59:27;19.02;;;11.95;;
73487;SDS011;61721;42.206;25.320;2023-03-04T08:01:54;22.58;;;11.63;;
73487;SDS011;61721;42.206;25.320;2023-03-04T08:04:22;19.88;;;11.43;;
73487;SDS011;61721;42.206;25.320;2023-03-04T08:06:49;21.80;;;13.27;;
73487;SDS011;61721;42.206;25.320;2023-03-04T08:09:16;20.98;;;12.20;;
73487;SDS011;61721;42.206;25.320;2023-03-04T08:11:45;21.85;;;12.63;;
73487;SDS011;61721;42.206;25.320;2023-03-04T08:14:12;23.15;;;12.32;;
73487;SDS011;61721;42.206;25.320;2023-03-04T08:16:41;20.30;;;11.82;;
73487;SDS011;61721;42.206;25.320;2023-03-04T08:19:09;21.40;;;11.82;;
73487;SDS011;61721;42.206;25.320;2023-03-04T08:21:38;28.77;;;16.05;;
73487;SDS011;61721;42.206;25.320;2023-03-04T08:24:06;21.45;;;12.02;;
73487;SDS011;61721;42.206;25.320;2023-03-04T08:26:34;22.40;;;12.80;;
73487;SDS011;61721;42.206;25.320;2023-03-04T08:29:07;20.38;;;12.80;;
73487;SDS011;61721;42.206;25.320;2023-03-04T08:31:35;23.98;;;12.65;;
73487;SDS011;61721;42.206;25.320;2023-03-04T08:34:04;23.25;;;13.20;;
73487;SDS011;61721;42.206;25.320;2023-03-04T08:36:32;41.03;;;20.77;;
73487;SDS011;61721;42.206;25.320;2023-03-04T08:39:01;30.20;;;16.73;;
73487;SDS011;61721;42.206;25.320;2023-03-04T08:41:28;22.80;;;13.52;;
73487;SDS011;61721;42.206;25.320;2023-03-04T08:43:55;22.88;;;12.35;;
73487;SDS011;61721;42.206;25.320;2023-03-04T08:46:24;26.65;;;13.68;;
73487;SDS011;61721;42.206;25.320;2023-03-04T08:48:51;27.88;;;14.25;;
73487;SDS011;61721;42.206;25.320;2023-03-04T08:51:18;27.77;;;15.90;;
73487;SDS011;61721;42.206;25.320;2023-03-04T08:53:47;27.02;;;15.65;;
73487;SDS011;61721;42.206;25.320;2023-03-04T08:56:14;25.52;;;14.77;;
73487;SDS011;61721;42.206;25.320;2023-03-04T08:58:41;25.20;;;14.32;;
73487;SDS011;61721;42.206;25.320;2023-03-04T09:01:09;24.67;;;13.73;;
73487;SDS011;61721;42.206;25.320;2023-03-04T09:03:39;23.85;;;13.13;;
73487;SDS011;61721;42.206;25.320;2023-03-04T09:06:07;22.85;;;13.30;;
73487;SDS011;61721;42.206;25.320;2023-03-04T09:08:34;23.17;;;12.35;;
73487;SDS011;61721;42.206;25.320;2023-03-04T09:11:02;21.23;;;12.32;;
73487;SDS011;61721;42.206;25.320;2023-03-04T09:13:29;22.83;;;12.77;;
73487;SDS011;61721;42.206;25.320;2023-03-04T09:15:57;24.05;;;13.15;;
73487;SDS011;61721;42.206;25.320;2023-03-04T09:18:25;20.05;;;11.65;;
73487;SDS011;61721;42.206;25.320;2023-03-04T09:20:54;20.85;;;11.95;;
73487;SDS011;61721;42.206;25.320;2023-03-04T09:23:21;22.02;;;12.50;;
73487;SDS011;61721;42.206;25.320;2023-03-04T09:25:49;24.67;;;13.93;;
73487;SDS011;61721;42.206;25.320;2023-03-04T09:28:16;26.60;;;14.43;;
73487;SDS011;61721;42.206;25.320;2023-03-04T09:30:44;26.58;;;14.98;;
73487;SDS011;61721;42.206;25.320;2023-03-04T09:33:12;28.88;;;14.65;;
73487;SDS011;61721;42.206;25.320;2023-03-04T09:35:39;25.30;;;15.30;;
73487;SDS011;61721;42.206;25.320;2023-03-04T09:38:08;31.92;;;15.90;;
73487;SDS011;61721;42.206;25.320;2023-03-04T09:40:38;32.72;;;17.85;;
73487;SDS011;61721;42.206;25.320;2023-03-04T09:43:10;27.95;;;14.70;;
73487;SDS011;61721;42.206;25.320;2023-03-04T09:45:46;48.85;;;23.45;;
73487;SDS011;61721;42.206;25.320;2023-03-04T09:48:16;32.45;;;18.50;;
73487;SDS011;61721;42.206;25.320;2023-03-04T09:50:49;31.83;;;16.48;;
73487;SDS011;61721;42.206;25.320;2023-03-04T09:53:30;23.50;;;13.82;;
73487;SDS011;61721;42.206;25.320;2023-03-04T09:56:04;18.08;;;9.80;;
73487;SDS011;61721;42.206;25.320;2023-03-04T09:58:35;16.00;;;9.85;;
73487;SDS011;61721;42.206;25.320;2023-03-04T10:01:16;19.88;;;10.57;;
73487;SDS011;61721;42.206;25.320;2023-03-04T10:03:47;17.42;;;10.68;;
73487;SDS011;61721;42.206;25.320;2023-03-04T10:06:19;18.73;;;10.35;;
73487;SDS011;61721;42.206;25.320;2023-03-04T10:08:51;20.98;;;12.63;;
73487;SDS011;61721;42.206;25.320;2023-03-04T10:11:24;14.75;;;9.55;;
73487;SDS011;61721;42.206;25.320;2023-03-04T10:13:59;15.13;;;9.52;;
73487;SDS011;61721;42.206;25.320;2023-03-04T10:16:37;15.27;;;11.07;;
73487;SDS011;61721;42.206;25.320;2023-03-04T10:19:19;13.70;;;8.82;;
73487;SDS011;61721;42.206;25.320;2023-03-04T10:21:54;12.00;;;7.63;;
73487;SDS011;61721;42.206;25.320;2023-03-04T10:24:26;11.82;;;8.38;;
73487;SDS011;61721;42.206;25.320;2023-03-04T10:26:56;13.00;;;8.80;;
73487;SDS011;61721;42.206;25.320;2023-03-04T10:29:27;12.30;;;8.32;;
73487;SDS011;61721;42.206;25.320;2023-03-04T10:31:58;13.25;;;8.68;;
73487;SDS011;61721;42.206;25.320;2023-03-04T10:34:25;11.80;;;8.65;;
73487;SDS011;61721;42.206;25.320;2023-03-04T10:36:53;11.40;;;7.57;;
73487;SDS011;61721;42.206;25.320;2023-03-04T10:39:25;11.15;;;8.27;;
73487;SDS011;61721;42.206;25.320;2023-03-04T10:41:56;13.05;;;8.05;;
73487;SDS011;61721;42.206;25.320;2023-03-04T10:44:24;12.25;;;7.80;;
73487;SDS011;61721;42.206;25.320;2023-03-04T10:46:53;9.45;;;6.65;;
73487;SDS011;61721;42.206;25.320;2023-03-04T10:49:21;13.60;;;9.98;;
73487;SDS011;61721;42.206;25.320;2023-03-04T10:51:50;12.00;;;8.52;;
73487;SDS011;61721;42.206;25.320;2023-03-04T10:54:30;12.48;;;8.65;;
73487;SDS011;61721;42.206;25.320;2023-03-04T10:57:11;13.20;;;9.02;;
73487;SDS011;61721;42.206;25.320;2023-03-04T10:59:43;11.93;;;7.70;;
73487;SDS011;61721;42.206;25.320;2023-03-04T11:02:22;15.43;;;8.48;;
73487;SDS011;61721;42.206;25.320;2023-03-04T11:04:52;12.95;;;7.93;;
73487;SDS011;61721;42.206;25.320;2023-03-04T11:07:21;12.95;;;8.25;;
73487;SDS011;61721;42.206;25.320;2023-03-04T11:09:51;13.18;;;8.43;;
73487;SDS011;61721;42.206;25.320;2023-03-04T11:12:20;12.82;;;9.18;;
73487;SDS011;61721;42.206;25.320;2023-03-04T11:14:57;12.82;;;7.65;;
73487;SDS011;61721;42.206;25.320;2023-03-04T11:17:25;11.73;;;7.88;;
73487;SDS011;61721;42.206;25.320;2023-03-04T11:19:56;11.05;;;7.47;;
73487;SDS011;61721;42.206;25.320;2023-03-04T11:22:30;11.70;;;7.75;;
73487;SDS011;61721;42.206;25.320;2023-03-04T11:25:00;16.90;;;8.50;;
73487;SDS011;61721;42.206;25.320;2023-03-04T11:27:35;13.13;;;7.90;;
73487;SDS011;61721;42.206;25.320;2023-03-04T11:30:20;12.55;;;8.07;;
73487;SDS011;61721;42.206;25.320;2023-03-04T11:32:57;11.43;;;7.32;;
73487;SDS011;61721;42.206;25.320;2023-03-04T11:35:37;11.85;;;7.40;;
73487;SDS011;61721;42.206;25.320;2023-03-04T11:38:11;13.50;;;8.13;;
73487;SDS011;61721;42.206;25.320;2023-03-04T11:40:47;12.18;;;8.05;;
73487;SDS011;61721;42.206;25.320;2023-03-04T11:43:21;11.52;;;7.95;;
73487;SDS011;61721;42.206;25.320;2023-03-04T11:48:58;12.15;;;7.40;;
73487;SDS011;61721;42.206;25.320;2023-03-04T11:51:43;10.70;;;6.60;;
73487;SDS011;61721;42.206;25.320;2023-03-04T11:54:21;11.45;;;7.65;;
73487;SDS011;61721;42.206;25.320;2023-03-04T11:56:58;14.90;;;8.68;;
73487;SDS011;61721;42.206;25.320;2023-03-04T12:02:31;10.18;;;6.70;;
73487;SDS011;61721;42.206;25.320;2023-03-04T12:05:19;10.13;;;6.90;;
73487;SDS011;61721;42.206;25.320;2023-03-04T12:10:53;9.38;;;6.30;;
73487;SDS011;61721;42.206;25.320;2023-03-04T12:13:36;11.43;;;7.60;;
73487;SDS011;61721;42.206;25.320;2023-03-04T12:16:31;14.73;;;8.20;;
73487;SDS011;61721;42.206;25.320;2023-03-04T12:19:13;11.48;;;7.72;;
73487;SDS011;61721;42.206;25.320;2023-03-04T12:21:58;12.00;;;7.50;;
73487;SDS011;61721;42.206;25.320;2023-03-04T12:24:46;13.73;;;7.05;;
73487;SDS011;61721;42.206;25.320;2023-03-04T12:27:30;10.10;;;6.80;;
73487;SDS011;61721;42.206;25.320;2023-03-04T12:30:04;10.55;;;7.07;;
73487;SDS011;61721;42.206;25.320;2023-03-04T12:32:42;11.15;;;7.40;;
73487;SDS011;61721;42.206;25.320;2023-03-04T12:35:23;12.30;;;7.18;;
73487;SDS011;61721;42.206;25.320;2023-03-04T12:38:05;11.13;;;6.97;;
73487;SDS011;61721;42.206;25.320;2023-03-04T12:40:46;13.52;;;7.00;;
73487;SDS011;61721;42.206;25.320;2023-03-04T12:49:14;10.75;;;6.88;;
73487;SDS011;61721;42.206;25.320;2023-03-04T12:52:01;12.52;;;8.13;;
73487;SDS011;61721;42.206;25.320;2023-03-04T12:54:36;15.07;;;8.82;;
73487;SDS011;61721;42.206;25.320;2023-03-04T12:57:08;18.00;;;9.32;;
73487;SDS011;61721;42.206;25.320;2023-03-04T12:59:39;18.08;;;11.07;;
73487;SDS011;61721;42.206;25.320;2023-03-04T13:05:23;10.80;;;6.40;;
73487;SDS011;61721;42.206;25.320;2023-03-04T13:08:04;25.38;;;11.88;;
73487;SDS011;61721;42.206;25.320;2023-03-04T13:10:40;19.98;;;10.60;;
73487;SDS011;61721;42.206;25.320;2023-03-04T13:16:03;33.05;;;14.32;;
73487;SDS011;61721;42.206;25.320;2023-03-04T13:18:32;21.83;;;10.25;;
73487;SDS011;61721;42.206;25.320;2023-03-04T13:21:14;44.97;;;17.25;;
73487;SDS011;61721;42.206;25.320;2023-03-04T13:23:55;44.92;;;16.83;;
73487;SDS011;61721;42.206;25.320;2023-03-04T13:26:28;18.25;;;10.30;;
73487;SDS011;61721;42.206;25.320;2023-03-04T13:32:03;48.33;;;20.52;;
73487;SDS011;61721;42.206;25.320;2023-03-04T13:34:47;15.82;;;9.30;;
73487;SDS011;61721;42.206;25.320;2023-03-04T13:42:52;21.50;;;10.75;;
73487;SDS011;61721;42.206;25.320;2023-03-04T13:45:30;36.08;;;17.30;;
73487;SDS011;61721;42.206;25.320;2023-03-04T13:47:59;16.60;;;9.68;;
73487;SDS011;61721;42.206;25.320;2023-03-04T13:56:09;14.18;;;7.82;;
73487;SDS011;61721;42.206;25.320;2023-03-04T14:01:57;26.75;;;15.63;;
73487;SDS011;61721;42.206;25.320;2023-03-04T14:04:29;13.30;;;7.65;;
73487;SDS011;61721;42.206;25.320;2023-03-04T14:06:58;12.57;;;7.53;;
73487;SDS011;61721;42.206;25.320;2023-03-04T14:09:30;14.30;;;8.20;;
73487;SDS011;61721;42.206;25.320;2023-03-04T14:11:58;12.18;;;7.75;;
73487;SDS011;61721;42.206;25.320;2023-03-04T14:14:30;16.52;;;8.65;;
73487;SDS011;61721;42.206;25.320;2023-03-04T14:17:05;13.82;;;8.48;;
73487;SDS011;61721;42.206;25.320;2023-03-04T14:19:42;14.77;;;7.70;;
73487;SDS011;61721;42.206;25.320;2023-03-04T14:22:22;12.13;;;7.65;;
73487;SDS011;61721;42.206;25.320;2023-03-04T14:24:57;12.18;;;7.32;;
73487;SDS011;61721;42.206;25.320;2023-03-04T14:27:26;14.43;;;7.72;;
73487;SDS011;61721;42.206;25.320;2023-03-04T14:29:54;15.48;;;9.05;;
73487;SDS011;61721;42.206;25.320;2023-03-04T14:32:25;15.30;;;8.57;;
73487;SDS011;61721;42.206;25.320;2023-03-04T14:34:54;13.00;;;8.32;;
73487;SDS011;61721;42.206;25.320;2023-03-04T14:37:25;14.88;;;8.60;;
73487;SDS011;61721;42.206;25.320;2023-03-04T14:40:00;16.75;;;9.82;;
73487;SDS011;61721;42.206;25.320;2023-03-04T14:42:30;17.63;;;10.07;;
73487;SDS011;61721;42.206;25.320;2023-03-04T14:45:05;15.85;;;9.25;;
73487;SDS011;61721;42.206;25.320;2023-03-04T14:47:36;15.43;;;9.60;;
73487;SDS011;61721;42.206;25.320;2023-03-04T14:52:37;22.20;;;12.68;;
73487;SDS011;61721;42.206;25.320;2023-03-04T14:58:04;16.15;;;9.35;;
73487;SDS011;61721;42.206;25.320;2023-03-04T15:00:33;17.08;;;9.27;;
73487;SDS011;61721;42.206;25.320;2023-03-04T15:03:02;19.92;;;11.00;;
73487;SDS011;61721;42.206;25.320;2023-03-04T15:05:34;17.35;;;10.90;;
73487;SDS011;61721;42.206;25.320;2023-03-04T15:08:02;18.45;;;10.55;;
73487;SDS011;61721;42.206;25.320;2023-03-04T15:10:36;16.20;;;10.25;;
73487;SDS011;61721;42.206;25.320;2023-03-04T15:13:05;17.38;;;10.00;;
73487;SDS011;61721;42.206;25.320;2023-03-04T15:15:35;15.77;;;9.65;;
73487;SDS011;61721;42.206;25.320;2023-03-04T15:18:14;17.50;;;9.77;;
73487;SDS011;61721;42.206;25.320;2023-03-04T15:20:54;17.02;;;10.20;;
73487;SDS011;61721;42.206;25.320;2023-03-04T15:23:24;16.98;;;9.65;;
73487;SDS011;61721;42.206;25.320;2023-03-04T15:25:54;19.42;;;10.45;;